sensor_id;sensor_type;location;lat;lon;timestamp;temperature;humidity
3550;DHT22;45572;48.804;8.330;2022-12-20T00:01:08;3.40;96.80
3550;DHT22;45572;48.804;8.330;2022-12-20T00:03:36;3.40;96.80
3550;DHT22;45572;48.804;8.330;2022-12-20T00:06:04;3.40;96.80
3550;DHT22;45572;48.804;8.330;2022-12-20T00:08:33;3.40;96.80
3550;DHT22;45572;48.804;8.330;2022-12-20T00:11:03;3.40;96.80
3550;DHT22;45572;48.804;8.330;2022-12-20T00:13:33;3.50;96.80
3550;DHT22;45572;48.804;8.330;2022-12-20T00:16:05;3.40;96.80
3550;DHT22;45572;48.804;8.330;2022-12-20T00:18:34;3.50;96.80
3550;DHT22;45572;48.804;8.330;2022-12-20T00:21:03;3.50;96.80
3550;DHT22;45572;48.804;8.330;2022-12-20T00:23:31;3.50;96.80
3550;DHT22;45572;48.804;8.330;2022-12-20T00:26:00;3.40;96.80
3550;DHT22;45572;48.804;8.330;2022-12-20T00:28:28;3.50;96.80
3550;DHT22;45572;48.804;8.330;2022-12-20T00:30:57;3.50;96.80
3550;DHT22;45572;48.804;8.330;2022-12-20T00:33:25;3.60;96.80
3550;DHT22;45572;48.804;8.330;2022-12-20T00:35:53;3.60;96.80
3550;DHT22;45572;48.804;8.330;2022-12-20T00:38:21;3.60;96.80
3550;DHT22;45572;48.804;8.330;2022-12-20T00:40:58;3.60;96.80
3550;DHT22;45572;48.804;8.330;2022-12-20T00:43:27;3.60;96.80
3550;DHT22;45572;48.804;8.330;2022-12-20T00:45:56;3.60;96.80
3550;DHT22;45572;48.804;8.330;2022-12-20T00:48:24;3.60;96.80
3550;DHT22;45572;48.804;8.330;2022-12-20T00:50:57;3.70;96.80
3550;DHT22;45572;48.804;8.330;2022-12-20T00:53:25;3.70;96.80
3550;DHT22;45572;48.804;8.330;2022-12-20T00:55:53;3.70;96.80
3550;DHT22;45572;48.804;8.330;2022-12-20T00:58:21;3.80;96.80
3550;DHT22;45572;48.804;8.330;2022-12-20T01:00:49;3.70;96.80
3550;DHT22;45572;48.804;8.330;2022-12-20T01:03:23;3.70;96.80
3550;DHT22;45572;48.804;8.330;2022-12-20T01:05:53;3.70;96.80
3550;DHT22;45572;48.804;8.330;2022-12-20T01:08:22;3.60;96.80
3550;DHT22;45572;48.804;8.330;2022-12-20T01:10:57;3.70;96.80
3550;DHT22;45572;48.804;8.330;2022-12-20T01:13:25;3.80;96.80
3550;DHT22;45572;48.804;8.330;2022-12-20T01:15:54;3.80;96.80
3550;DHT22;45572;48.804;8.330;2022-12-20T01:18:23;3.80;96.80
3550;DHT22;45572;48.804;8.330;2022-12-20T01:21:00;3.80;96.80
3550;DHT22;45572;48.804;8.330;2022-12-20T01:23:28;3.80;96.80
3550;DHT22;45572;48.804;8.330;2022-12-20T01:25:57;3.70;96.80
3550;DHT22;45572;48.804;8.330;2022-12-20T01:28:26;3.70;96.80
3550;DHT22;45572;48.804;8.330;2022-12-20T01:30:54;3.80;96.80
3550;DHT22;45572;48.804;8.330;2022-12-20T01:33:23;3.80;96.80
3550;DHT22;45572;48.804;8.330;2022-12-20T01:35:55;3.80;96.80
3550;DHT22;45572;48.804;8.330;2022-12-20T01:38:23;3.80;96.80
3550;DHT22;45572;48.804;8.330;2022-12-20T01:40:51;3.70;96.80
3550;DHT22;45572;48.804;8.330;2022-12-20T01:43:20;3.70;96.80
3550;DHT22;45572;48.804;8.330;2022-12-20T01:45:48;3.60;96.80
3550;DHT22;45572;48.804;8.330;2022-12-20T01:48:19;3.70;96.80
3550;DHT22;45572;48.804;8.330;2022-12-20T01:50:50;3.60;96.80
3550;DHT22;45572;48.804;8.330;2022-12-20T01:53:20;3.40;96.80
3550;DHT22;45572;48.804;8.330;2022-12-20T01:55:49;3.20;96.80
3550;DHT22;45572;48.804;8.330;2022-12-20T01:58:19;3.30;96.80
3550;DHT22;45572;48.804;8.330;2022-12-20T02:00:47;3.30;96.80
3550;DHT22;45572;48.804;8.330;2022-12-20T02:03:17;3.30;96.80
3550;DHT22;45572;48.804;8.330;2022-12-20T02:05:45;3.30;96.80
3550;DHT22;45572;48.804;8.330;2022-12-20T02:08:17;3.30;96.80
3550;DHT22;45572;48.804;8.330;2022-12-20T02:10:57;3.30;96.80
3550;DHT22;45572;48.804;8.330;2022-12-20T02:13:34;3.30;96.80
3550;DHT22;45572;48.804;8.330;2022-12-20T02:16:04;3.30;96.80
3550;DHT22;45572;48.804;8.330;2022-12-20T02:18:36;3.30;96.80
3550;DHT22;45572;48.804;8.330;2022-12-20T02:21:13;3.30;96.80
3550;DHT22;45572;48.804;8.330;2022-12-20T02:24:04;3.20;96.80
3550;DHT22;45572;48.804;8.330;2022-12-20T02:26:56;3.30;96.80
3550;DHT22;45572;48.804;8.330;2022-12-20T02:29:34;3.40;96.80
3550;DHT22;45572;48.804;8.330;2022-12-20T02:32:08;3.40;96.80
3550;DHT22;45572;48.804;8.330;2022-12-20T02:34:40;3.50;96.80
3550;DHT22;45572;48.804;8.330;2022-12-20T02:37:09;3.60;96.80
3550;DHT22;45572;48.804;8.330;2022-12-20T02:39:39;3.60;96.80
3550;DHT22;45572;48.804;8.330;2022-12-20T02:42:09;3.40;96.80
3550;DHT22;45572;48.804;8.330;2022-12-20T02:44:41;3.20;96.80
3550;DHT22;45572;48.804;8.330;2022-12-20T02:47:30;3.20;96.80
3550;DHT22;45572;48.804;8.330;2022-12-20T02:50:00;3.30;96.80
3550;DHT22;45572;48.804;8.330;2022-12-20T02:52:30;3.40;96.80
3550;DHT22;45572;48.804;8.330;2022-12-20T02:54:59;3.40;96.80
3550;DHT22;45572;48.804;8.330;2022-12-20T02:57:35;3.40;96.80
3550;DHT22;45572;48.804;8.330;2022-12-20T03:00:07;3.50;96.80
3550;DHT22;45572;48.804;8.330;2022-12-20T03:02:43;3.50;96.80
3550;DHT22;45572;48.804;8.330;2022-12-20T03:05:26;3.50;96.80
3550;DHT22;45572;48.804;8.330;2022-12-20T03:07:54;3.50;96.80
3550;DHT22;45572;48.804;8.330;2022-12-20T03:10:24;3.60;96.80
3550;DHT22;45572;48.804;8.330;2022-12-20T03:12:54;3.60;96.80
3550;DHT22;45572;48.804;8.330;2022-12-20T03:15:23;3.60;96.80
3550;DHT22;45572;48.804;8.330;2022-12-20T03:17:54;3.60;96.60
3550;DHT22;45572;48.804;8.330;2022-12-20T03:20:23;3.60;96.60
3550;DHT22;45572;48.804;8.330;2022-12-20T03:22:51;3.40;96.80
3550;DHT22;45572;48.804;8.330;2022-12-20T03:25:19;3.40;96.80
3550;DHT22;45572;48.804;8.330;2022-12-20T03:27:47;3.40;96.80
3550;DHT22;45572;48.804;8.330;2022-12-20T03:30:16;3.40;96.80
3550;DHT22;45572;48.804;8.330;2022-12-20T03:32:44;3.30;96.80
3550;DHT22;45572;48.804;8.330;2022-12-20T03:35:13;3.30;96.80
3550;DHT22;45572;48.804;8.330;2022-12-20T03:37:42;3.30;96.80
3550;DHT22;45572;48.804;8.330;2022-12-20T03:40:11;3.30;96.80
3550;DHT22;45572;48.804;8.330;2022-12-20T03:42:39;3.30;96.80
3550;DHT22;45572;48.804;8.330;2022-12-20T03:45:07;3.30;96.80
3550;DHT22;45572;48.804;8.330;2022-12-20T03:47:35;3.30;96.80
3550;DHT22;45572;48.804;8.330;2022-12-20T03:50:04;3.30;96.80
3550;DHT22;45572;48.804;8.330;2022-12-20T03:52:35;3.30;96.80
3550;DHT22;45572;48.804;8.330;2022-12-20T03:55:04;3.30;96.80
3550;DHT22;45572;48.804;8.330;2022-12-20T03:57:38;3.20;96.80
3550;DHT22;45572;48.804;8.330;2022-12-20T04:00:21;3.20;96.80
3550;DHT22;45572;48.804;8.330;2022-12-20T04:02:53;3.20;96.80
3550;DHT22;45572;48.804;8.330;2022-12-20T04:05:22;3.30;96.80
3550;DHT22;45572;48.804;8.330;2022-12-20T04:07:51;3.40;96.80
3550;DHT22;45572;48.804;8.330;2022-12-20T04:10:19;3.50;96.80
3550;DHT22;45572;48.804;8.330;2022-12-20T04:12:47;3.40;96.80
3550;DHT22;45572;48.804;8.330;2022-12-20T04:15:16;3.50;96.80
3550;DHT22;45572;48.804;8.330;2022-12-20T04:17:46;3.60;96.80
3550;DHT22;45572;48.804;8.330;2022-12-20T04:20:15;3.60;96.80
3550;DHT22;45572;48.804;8.330;2022-12-20T04:23:01;3.60;96.80
3550;DHT22;45572;48.804;8.330;2022-12-20T04:25:29;3.60;96.80
3550;DHT22;45572;48.804;8.330;2022-12-20T04:27:57;3.60;96.80
3550;DHT22;45572;48.804;8.330;2022-12-20T04:30:24;3.70;96.80
3550;DHT22;45572;48.804;8.330;2022-12-20T04:32:53;3.70;96.80
3550;DHT22;45572;48.804;8.330;2022-12-20T04:35:21;3.70;96.80
3550;DHT22;45572;48.804;8.330;2022-12-20T04:37:49;3.70;96.60
3550;DHT22;45572;48.804;8.330;2022-12-20T04:40:18;3.70;96.50
3550;DHT22;45572;48.804;8.330;2022-12-20T04:42:50;3.60;96.60
3550;DHT22;45572;48.804;8.330;2022-12-20T04:45:18;3.60;96.80
3550;DHT22;45572;48.804;8.330;2022-12-20T04:47:47;3.60;96.70
3550;DHT22;45572;48.804;8.330;2022-12-20T04:50:21;3.70;96.80
3550;DHT22;45572;48.804;8.330;2022-12-20T04:52:49;3.60;96.70
3550;DHT22;45572;48.804;8.330;2022-12-20T04:55:36;3.50;96.80
3550;DHT22;45572;48.804;8.330;2022-12-20T04:58:05;3.50;96.80
3550;DHT22;45572;48.804;8.330;2022-12-20T05:00:36;3.60;96.80
3550;DHT22;45572;48.804;8.330;2022-12-20T05:03:16;3.60;96.80
3550;DHT22;45572;48.804;8.330;2022-12-20T05:05:44;3.70;96.80
3550;DHT22;45572;48.804;8.330;2022-12-20T05:08:12;3.80;96.80
3550;DHT22;45572;48.804;8.330;2022-12-20T05:10:41;3.80;96.70
3550;DHT22;45572;48.804;8.330;2022-12-20T05:13:09;3.90;96.70
3550;DHT22;45572;48.804;8.330;2022-12-20T05:15:41;3.70;96.80
3550;DHT22;45572;48.804;8.330;2022-12-20T05:18:10;3.80;96.80
3550;DHT22;45572;48.804;8.330;2022-12-20T05:20:46;3.90;96.80
3550;DHT22;45572;48.804;8.330;2022-12-20T05:23:14;3.90;96.70
3550;DHT22;45572;48.804;8.330;2022-12-20T05:26:08;3.90;96.60
3550;DHT22;45572;48.804;8.330;2022-12-20T05:28:51;3.90;96.40
3550;DHT22;45572;48.804;8.330;2022-12-20T05:31:20;3.80;96.40
3550;DHT22;45572;48.804;8.330;2022-12-20T05:33:47;3.80;96.60
3550;DHT22;45572;48.804;8.330;2022-12-20T05:36:16;3.80;96.80
3550;DHT22;45572;48.804;8.330;2022-12-20T05:38:44;3.80;96.80
3550;DHT22;45572;48.804;8.330;2022-12-20T05:41:17;3.80;96.80
3550;DHT22;45572;48.804;8.330;2022-12-20T05:43:48;3.80;96.80
3550;DHT22;45572;48.804;8.330;2022-12-20T05:46:16;3.90;96.80
3550;DHT22;45572;48.804;8.330;2022-12-20T05:48:53;3.90;96.70
3550;DHT22;45572;48.804;8.330;2022-12-20T05:51:21;3.90;96.30
3550;DHT22;45572;48.804;8.330;2022-12-20T05:54:01;3.90;96.20
3550;DHT22;45572;48.804;8.330;2022-12-20T05:56:44;4.00;96.30
3550;DHT22;45572;48.804;8.330;2022-12-20T05:59:12;4.00;96.20
3550;DHT22;45572;48.804;8.330;2022-12-20T06:01:42;4.00;96.30
3550;DHT22;45572;48.804;8.330;2022-12-20T06:04:10;4.00;96.30
3550;DHT22;45572;48.804;8.330;2022-12-20T06:06:40;4.00;96.00
3550;DHT22;45572;48.804;8.330;2022-12-20T06:09:09;4.00;96.10
3550;DHT22;45572;48.804;8.330;2022-12-20T06:11:44;3.90;96.30
3550;DHT22;45572;48.804;8.330;2022-12-20T06:14:13;3.90;96.20
3550;DHT22;45572;48.804;8.330;2022-12-20T06:16:44;3.90;96.10
3550;DHT22;45572;48.804;8.330;2022-12-20T06:19:15;4.00;96.00
3550;DHT22;45572;48.804;8.330;2022-12-20T06:21:48;4.00;96.10
3550;DHT22;45572;48.804;8.330;2022-12-20T06:24:22;3.90;96.10
3550;DHT22;45572;48.804;8.330;2022-12-20T06:26:53;4.00;96.30
3550;DHT22;45572;48.804;8.330;2022-12-20T06:29:23;4.00;96.30
3550;DHT22;45572;48.804;8.330;2022-12-20T06:32:00;4.00;96.30
3550;DHT22;45572;48.804;8.330;2022-12-20T06:34:31;3.90;96.20
3550;DHT22;45572;48.804;8.330;2022-12-20T06:37:00;4.00;96.40
3550;DHT22;45572;48.804;8.330;2022-12-20T06:39:31;4.00;96.40
3550;DHT22;45572;48.804;8.330;2022-12-20T06:42:04;4.10;96.40
3550;DHT22;45572;48.804;8.330;2022-12-20T06:44:37;4.00;96.50
3550;DHT22;45572;48.804;8.330;2022-12-20T06:47:05;4.00;96.60
3550;DHT22;45572;48.804;8.330;2022-12-20T06:49:33;4.00;96.40
3550;DHT22;45572;48.804;8.330;2022-12-20T06:52:08;4.00;96.50
3550;DHT22;45572;48.804;8.330;2022-12-20T06:54:48;4.00;96.50
3550;DHT22;45572;48.804;8.330;2022-12-20T06:57:20;4.00;96.50
3550;DHT22;45572;48.804;8.330;2022-12-20T06:59:50;4.10;96.50
3550;DHT22;45572;48.804;8.330;2022-12-20T07:02:18;4.10;96.50
3550;DHT22;45572;48.804;8.330;2022-12-20T07:04:46;4.00;96.50
3550;DHT22;45572;48.804;8.330;2022-12-20T07:07:14;3.90;96.40
3550;DHT22;45572;48.804;8.330;2022-12-20T07:09:43;3.90;96.60
3550;DHT22;45572;48.804;8.330;2022-12-20T07:12:11;4.00;96.60
3550;DHT22;45572;48.804;8.330;2022-12-20T07:14:42;4.00;96.70
3550;DHT22;45572;48.804;8.330;2022-12-20T07:17:10;4.00;96.80
3550;DHT22;45572;48.804;8.330;2022-12-20T07:19:38;4.00;96.80
3550;DHT22;45572;48.804;8.330;2022-12-20T07:22:13;4.00;96.80
3550;DHT22;45572;48.804;8.330;2022-12-20T07:24:43;3.90;96.80
3550;DHT22;45572;48.804;8.330;2022-12-20T07:27:13;4.00;96.80
3550;DHT22;45572;48.804;8.330;2022-12-20T07:29:42;4.00;96.80
3550;DHT22;45572;48.804;8.330;2022-12-20T07:32:11;4.00;96.80
3550;DHT22;45572;48.804;8.330;2022-12-20T07:34:39;3.90;96.80
3550;DHT22;45572;48.804;8.330;2022-12-20T07:37:06;3.90;96.80
3550;DHT22;45572;48.804;8.330;2022-12-20T07:39:35;4.00;96.80
3550;DHT22;45572;48.804;8.330;2022-12-20T07:42:02;4.10;96.80
3550;DHT22;45572;48.804;8.330;2022-12-20T07:44:42;4.10;96.80
3550;DHT22;45572;48.804;8.330;2022-12-20T07:47:10;4.10;96.80
3550;DHT22;45572;48.804;8.330;2022-12-20T07:49:38;4.20;96.80
3550;DHT22;45572;48.804;8.330;2022-12-20T07:52:07;4.30;96.80
3550;DHT22;45572;48.804;8.330;2022-12-20T07:54:41;4.30;96.80
3550;DHT22;45572;48.804;8.330;2022-12-20T07:57:14;4.30;96.80
3550;DHT22;45572;48.804;8.330;2022-12-20T07:59:47;4.30;96.80
3550;DHT22;45572;48.804;8.330;2022-12-20T08:02:21;4.40;96.80
3550;DHT22;45572;48.804;8.330;2022-12-20T08:04:54;4.30;96.80
3550;DHT22;45572;48.804;8.330;2022-12-20T08:07:23;4.40;96.80
3550;DHT22;45572;48.804;8.330;2022-12-20T08:09:51;4.40;96.80
3550;DHT22;45572;48.804;8.330;2022-12-20T08:12:22;4.50;96.80
3550;DHT22;45572;48.804;8.330;2022-12-20T08:14:58;4.60;96.80
3550;DHT22;45572;48.804;8.330;2022-12-20T08:17:26;4.70;96.80
3550;DHT22;45572;48.804;8.330;2022-12-20T08:19:54;4.80;96.80
3550;DHT22;45572;48.804;8.330;2022-12-20T08:22:23;4.80;96.80
3550;DHT22;45572;48.804;8.330;2022-12-20T08:24:52;4.80;96.80
3550;DHT22;45572;48.804;8.330;2022-12-20T08:27:20;4.90;96.80
3550;DHT22;45572;48.804;8.330;2022-12-20T08:29:47;4.80;96.80
3550;DHT22;45572;48.804;8.330;2022-12-20T08:32:18;4.90;96.80
3550;DHT22;45572;48.804;8.330;2022-12-20T08:34:47;4.90;96.80
3550;DHT22;45572;48.804;8.330;2022-12-20T08:37:15;5.00;96.80
3550;DHT22;45572;48.804;8.330;2022-12-20T08:39:45;5.20;96.80
3550;DHT22;45572;48.804;8.330;2022-12-20T08:42:13;5.30;96.80
3550;DHT22;45572;48.804;8.330;2022-12-20T08:44:44;5.40;96.80
3550;DHT22;45572;48.804;8.330;2022-12-20T08:47:12;5.50;96.30
3550;DHT22;45572;48.804;8.330;2022-12-20T08:49:42;5.60;96.10
3550;DHT22;45572;48.804;8.330;2022-12-20T08:52:14;5.80;96.30
3550;DHT22;45572;48.804;8.330;2022-12-20T08:54:42;5.90;96.10
3550;DHT22;45572;48.804;8.330;2022-12-20T08:57:10;6.00;95.80
3550;DHT22;45572;48.804;8.330;2022-12-20T08:59:37;6.20;95.50
3550;DHT22;45572;48.804;8.330;2022-12-20T09:02:05;6.20;95.30
3550;DHT22;45572;48.804;8.330;2022-12-20T09:04:34;6.20;94.90
3550;DHT22;45572;48.804;8.330;2022-12-20T09:07:03;6.30;94.80
3550;DHT22;45572;48.804;8.330;2022-12-20T09:09:31;6.40;94.70
3550;DHT22;45572;48.804;8.330;2022-12-20T09:11:58;6.30;94.50
3550;DHT22;45572;48.804;8.330;2022-12-20T09:14:26;6.30;94.50
3550;DHT22;45572;48.804;8.330;2022-12-20T09:16:54;6.30;94.30
3550;DHT22;45572;48.804;8.330;2022-12-20T09:19:22;6.30;94.30
3550;DHT22;45572;48.804;8.330;2022-12-20T09:21:50;6.30;94.50
3550;DHT22;45572;48.804;8.330;2022-12-20T09:24:19;6.40;94.50
3550;DHT22;45572;48.804;8.330;2022-12-20T09:26:47;6.40;94.30
3550;DHT22;45572;48.804;8.330;2022-12-20T09:29:18;6.20;94.10
3550;DHT22;45572;48.804;8.330;2022-12-20T09:31:54;6.30;94.30
3550;DHT22;45572;48.804;8.330;2022-12-20T09:34:21;6.40;93.80
3550;DHT22;45572;48.804;8.330;2022-12-20T09:36:50;6.40;93.70
3550;DHT22;45572;48.804;8.330;2022-12-20T09:39:19;6.40;93.70
3550;DHT22;45572;48.804;8.330;2022-12-20T09:41:48;6.50;94.00
3550;DHT22;45572;48.804;8.330;2022-12-20T09:44:19;6.50;94.00
3550;DHT22;45572;48.804;8.330;2022-12-20T09:46:53;6.60;93.70
3550;DHT22;45572;48.804;8.330;2022-12-20T09:49:24;6.70;93.90
3550;DHT22;45572;48.804;8.330;2022-12-20T09:52:06;6.80;93.80
3550;DHT22;45572;48.804;8.330;2022-12-20T09:54:45;6.40;93.80
3550;DHT22;45572;48.804;8.330;2022-12-20T09:57:26;6.50;94.70
3550;DHT22;45572;48.804;8.330;2022-12-20T09:59:56;6.60;94.50
3550;DHT22;45572;48.804;8.330;2022-12-20T10:02:25;6.80;94.20
3550;DHT22;45572;48.804;8.330;2022-12-20T10:05:18;6.90;93.90
3550;DHT22;45572;48.804;8.330;2022-12-20T10:07:53;7.00;93.50
3550;DHT22;45572;48.804;8.330;2022-12-20T10:10:36;7.10;93.50
3550;DHT22;45572;48.804;8.330;2022-12-20T10:13:21;7.30;93.40
3550;DHT22;45572;48.804;8.330;2022-12-20T10:15:51;7.20;93.20
3550;DHT22;45572;48.804;8.330;2022-12-20T10:18:32;7.30;93.50
3550;DHT22;45572;48.804;8.330;2022-12-20T10:21:10;7.50;93.10
3550;DHT22;45572;48.804;8.330;2022-12-20T10:23:45;7.60;92.60
3550;DHT22;45572;48.804;8.330;2022-12-20T10:26:18;7.80;91.70
3550;DHT22;45572;48.804;8.330;2022-12-20T10:28:49;7.90;91.40
3550;DHT22;45572;48.804;8.330;2022-12-20T10:31:20;7.90;91.20
3550;DHT22;45572;48.804;8.330;2022-12-20T10:33:48;8.00;91.00
3550;DHT22;45572;48.804;8.330;2022-12-20T10:36:17;7.90;90.90
3550;DHT22;45572;48.804;8.330;2022-12-20T10:38:47;8.00;90.80
3550;DHT22;45572;48.804;8.330;2022-12-20T10:41:19;8.00;90.50
3550;DHT22;45572;48.804;8.330;2022-12-20T10:43:55;8.00;90.40
3550;DHT22;45572;48.804;8.330;2022-12-20T10:46:34;8.00;90.40
3550;DHT22;45572;48.804;8.330;2022-12-20T10:49:20;8.00;90.30
3550;DHT22;45572;48.804;8.330;2022-12-20T10:51:52;8.00;90.40
3550;DHT22;45572;48.804;8.330;2022-12-20T10:54:22;8.00;90.40
3550;DHT22;45572;48.804;8.330;2022-12-20T10:56:58;8.00;90.40
3550;DHT22;45572;48.804;8.330;2022-12-20T10:59:31;8.00;90.50
3550;DHT22;45572;48.804;8.330;2022-12-20T11:01:59;7.90;90.80
3550;DHT22;45572;48.804;8.330;2022-12-20T11:04:29;7.90;90.80
3550;DHT22;45572;48.804;8.330;2022-12-20T11:06:58;7.80;91.10
3550;DHT22;45572;48.804;8.330;2022-12-20T11:09:29;7.80;91.20
3550;DHT22;45572;48.804;8.330;2022-12-20T11:12:01;7.80;91.30
3550;DHT22;45572;48.804;8.330;2022-12-20T11:14:31;7.80;91.50
3550;DHT22;45572;48.804;8.330;2022-12-20T11:17:18;7.50;92.20
3550;DHT22;45572;48.804;8.330;2022-12-20T11:19:57;7.40;92.70
3550;DHT22;45572;48.804;8.330;2022-12-20T11:22:37;7.50;92.80
3550;DHT22;45572;48.804;8.330;2022-12-20T11:25:24;7.50;92.60
3550;DHT22;45572;48.804;8.330;2022-12-20T11:28:12;7.60;92.80
3550;DHT22;45572;48.804;8.330;2022-12-20T11:30:51;7.60;93.00
3550;DHT22;45572;48.804;8.330;2022-12-20T11:33:34;7.70;93.00
3550;DHT22;45572;48.804;8.330;2022-12-20T11:36:09;7.80;92.90
3550;DHT22;45572;48.804;8.330;2022-12-20T11:38:42;7.90;93.20
3550;DHT22;45572;48.804;8.330;2022-12-20T11:41:17;8.00;92.90
3550;DHT22;45572;48.804;8.330;2022-12-20T11:44:00;8.00;92.80
3550;DHT22;45572;48.804;8.330;2022-12-20T11:47:03;7.90;92.90
3550;DHT22;45572;48.804;8.330;2022-12-20T11:49:49;7.90;92.90
3550;DHT22;45572;48.804;8.330;2022-12-20T11:52:30;7.90;93.00
3550;DHT22;45572;48.804;8.330;2022-12-20T11:55:06;8.00;92.70
3550;DHT22;45572;48.804;8.330;2022-12-20T11:57:41;8.10;92.80
3550;DHT22;45572;48.804;8.330;2022-12-20T12:00:32;8.20;93.00
3550;DHT22;45572;48.804;8.330;2022-12-20T12:03:08;8.40;92.90
3550;DHT22;45572;48.804;8.330;2022-12-20T12:05:41;8.60;92.70
3550;DHT22;45572;48.804;8.330;2022-12-20T12:08:15;8.70;92.60
3550;DHT22;45572;48.804;8.330;2022-12-20T12:10:49;8.80;92.60
3550;DHT22;45572;48.804;8.330;2022-12-20T12:13:24;9.00;92.20
3550;DHT22;45572;48.804;8.330;2022-12-20T12:16:02;9.10;91.70
3550;DHT22;45572;48.804;8.330;2022-12-20T12:18:34;9.20;91.40
3550;DHT22;45572;48.804;8.330;2022-12-20T12:21:07;9.10;91.00
3550;DHT22;45572;48.804;8.330;2022-12-20T12:23:44;9.10;90.80
3550;DHT22;45572;48.804;8.330;2022-12-20T12:26:19;8.80;90.80
3550;DHT22;45572;48.804;8.330;2022-12-20T12:28:50;8.50;90.80
3550;DHT22;45572;48.804;8.330;2022-12-20T12:31:27;8.60;91.30
3550;DHT22;45572;48.804;8.330;2022-12-20T12:34:05;8.60;91.80
3550;DHT22;45572;48.804;8.330;2022-12-20T12:36:48;8.70;91.60
3550;DHT22;45572;48.804;8.330;2022-12-20T12:42:22;8.60;92.20
3550;DHT22;45572;48.804;8.330;2022-12-20T12:44:56;8.60;92.00
3550;DHT22;45572;48.804;8.330;2022-12-20T12:47:33;8.40;92.00
3550;DHT22;45572;48.804;8.330;2022-12-20T12:50:02;8.50;92.10
3550;DHT22;45572;48.804;8.330;2022-12-20T12:52:47;8.60;91.90
3550;DHT22;45572;48.804;8.330;2022-12-20T12:55:34;8.70;91.90
3550;DHT22;45572;48.804;8.330;2022-12-20T12:58:14;8.70;91.80
3550;DHT22;45572;48.804;8.330;2022-12-20T13:00:56;8.70;91.60
3550;DHT22;45572;48.804;8.330;2022-12-20T13:03:42;8.60;91.60
3550;DHT22;45572;48.804;8.330;2022-12-20T13:09:18;8.70;91.60
3550;DHT22;45572;48.804;8.330;2022-12-20T13:11:46;8.80;91.40
3550;DHT22;45572;48.804;8.330;2022-12-20T13:14:47;8.80;91.40
3550;DHT22;45572;48.804;8.330;2022-12-20T13:20:18;8.70;91.40
3550;DHT22;45572;48.804;8.330;2022-12-20T13:25:45;8.70;91.50
3550;DHT22;45572;48.804;8.330;2022-12-20T13:31:29;8.60;91.60
3550;DHT22;45572;48.804;8.330;2022-12-20T13:34:00;8.60;91.50
3550;DHT22;45572;48.804;8.330;2022-12-20T13:36:33;8.60;91.60
3550;DHT22;45572;48.804;8.330;2022-12-20T13:39:32;8.50;92.00
3550;DHT22;45572;48.804;8.330;2022-12-20T13:42:18;8.40;92.60
3550;DHT22;45572;48.804;8.330;2022-12-20T13:44:52;8.40;92.70
3550;DHT22;45572;48.804;8.330;2022-12-20T13:47:35;8.50;92.50
3550;DHT22;45572;48.804;8.330;2022-12-20T13:50:21;8.50;92.40
3550;DHT22;45572;48.804;8.330;2022-12-20T13:52:51;8.60;92.60
3550;DHT22;45572;48.804;8.330;2022-12-20T13:55:31;8.60;92.60
3550;DHT22;45572;48.804;8.330;2022-12-20T13:58:04;8.60;92.80
3550;DHT22;45572;48.804;8.330;2022-12-20T14:00:33;8.70;92.90
3550;DHT22;45572;48.804;8.330;2022-12-20T14:03:01;8.70;92.80
3550;DHT22;45572;48.804;8.330;2022-12-20T14:05:32;8.80;93.30
3550;DHT22;45572;48.804;8.330;2022-12-20T14:08:07;8.90;93.00
3550;DHT22;45572;48.804;8.330;2022-12-20T14:10:40;8.80;92.60
3550;DHT22;45572;48.804;8.330;2022-12-20T14:13:19;8.90;92.50
3550;DHT22;45572;48.804;8.330;2022-12-20T14:15:48;8.80;92.40
3550;DHT22;45572;48.804;8.330;2022-12-20T14:18:17;8.70;92.80
3550;DHT22;45572;48.804;8.330;2022-12-20T14:20:48;8.70;92.90
3550;DHT22;45572;48.804;8.330;2022-12-20T14:23:19;8.70;92.80
3550;DHT22;45572;48.804;8.330;2022-12-20T14:25:50;8.70;92.80
3550;DHT22;45572;48.804;8.330;2022-12-20T14:28:27;8.70;92.80
3550;DHT22;45572;48.804;8.330;2022-12-20T14:30:58;8.50;93.20
3550;DHT22;45572;48.804;8.330;2022-12-20T14:33:34;8.50;93.20
3550;DHT22;45572;48.804;8.330;2022-12-20T14:36:09;8.30;93.40
3550;DHT22;45572;48.804;8.330;2022-12-20T14:38:38;8.30;93.50
3550;DHT22;45572;48.804;8.330;2022-12-20T14:41:30;8.30;93.30
3550;DHT22;45572;48.804;8.330;2022-12-20T14:44:02;8.30;93.20
3550;DHT22;45572;48.804;8.330;2022-12-20T14:46:34;8.30;93.10
3550;DHT22;45572;48.804;8.330;2022-12-20T14:49:17;8.10;93.60
3550;DHT22;45572;48.804;8.330;2022-12-20T14:51:47;7.90;94.30
3550;DHT22;45572;48.804;8.330;2022-12-20T14:54:17;7.90;94.70
3550;DHT22;45572;48.804;8.330;2022-12-20T14:57:10;7.90;94.80
3550;DHT22;45572;48.804;8.330;2022-12-20T14:59:56;7.70;94.70
3550;DHT22;45572;48.804;8.330;2022-12-20T15:02:34;7.70;95.10
3550;DHT22;45572;48.804;8.330;2022-12-20T15:08:09;7.60;95.50
3550;DHT22;45572;48.804;8.330;2022-12-20T15:10:37;7.60;95.50
3550;DHT22;45572;48.804;8.330;2022-12-20T15:13:10;7.50;95.50
3550;DHT22;45572;48.804;8.330;2022-12-20T15:15:43;7.60;95.40
3550;DHT22;45572;48.804;8.330;2022-12-20T15:18:12;7.60;95.20
3550;DHT22;45572;48.804;8.330;2022-12-20T15:20:41;7.50;95.30
3550;DHT22;45572;48.804;8.330;2022-12-20T15:23:13;7.50;95.20
3550;DHT22;45572;48.804;8.330;2022-12-20T15:25:42;7.50;95.30
3550;DHT22;45572;48.804;8.330;2022-12-20T15:28:15;7.30;95.50
3550;DHT22;45572;48.804;8.330;2022-12-20T15:30:43;7.30;95.60
3550;DHT22;45572;48.804;8.330;2022-12-20T15:33:15;7.40;95.30
3550;DHT22;45572;48.804;8.330;2022-12-20T15:35:43;7.30;95.20
3550;DHT22;45572;48.804;8.330;2022-12-20T15:38:13;7.40;95.20
3550;DHT22;45572;48.804;8.330;2022-12-20T15:40:44;7.40;95.20
3550;DHT22;45572;48.804;8.330;2022-12-20T15:43:16;7.30;95.30
3550;DHT22;45572;48.804;8.330;2022-12-20T15:45:47;7.30;95.20
3550;DHT22;45572;48.804;8.330;2022-12-20T15:48:17;7.30;95.30
3550;DHT22;45572;48.804;8.330;2022-12-20T15:50:49;7.30;95.20
3550;DHT22;45572;48.804;8.330;2022-12-20T15:53:22;7.30;95.20
3550;DHT22;45572;48.804;8.330;2022-12-20T15:55:55;7.20;95.40
3550;DHT22;45572;48.804;8.330;2022-12-20T15:58:25;7.20;95.60
3550;DHT22;45572;48.804;8.330;2022-12-20T16:00:56;7.10;95.70
3550;DHT22;45572;48.804;8.330;2022-12-20T16:03:29;7.00;95.90
3550;DHT22;45572;48.804;8.330;2022-12-20T16:06:00;7.00;95.90
3550;DHT22;45572;48.804;8.330;2022-12-20T16:08:28;7.00;95.90
3550;DHT22;45572;48.804;8.330;2022-12-20T16:10:56;7.00;96.10
3550;DHT22;45572;48.804;8.330;2022-12-20T16:13:27;6.90;96.00
3550;DHT22;45572;48.804;8.330;2022-12-20T16:15:55;6.80;96.00
3550;DHT22;45572;48.804;8.330;2022-12-20T16:18:23;6.80;96.00
3550;DHT22;45572;48.804;8.330;2022-12-20T16:20:58;6.80;96.00
3550;DHT22;45572;48.804;8.330;2022-12-20T16:23:26;6.70;95.90
3550;DHT22;45572;48.804;8.330;2022-12-20T16:25:53;6.70;96.20
3550;DHT22;45572;48.804;8.330;2022-12-20T16:28:21;6.80;96.50
3550;DHT22;45572;48.804;8.330;2022-12-20T16:30:51;6.70;96.60
3550;DHT22;45572;48.804;8.330;2022-12-20T16:33:20;6.60;96.50
3550;DHT22;45572;48.804;8.330;2022-12-20T16:35:48;6.60;96.50
3550;DHT22;45572;48.804;8.330;2022-12-20T16:38:16;6.50;96.70
3550;DHT22;45572;48.804;8.330;2022-12-20T16:40:43;6.50;96.80
3550;DHT22;45572;48.804;8.330;2022-12-20T16:43:13;6.50;96.80
3550;DHT22;45572;48.804;8.330;2022-12-20T16:45:43;6.50;96.80
3550;DHT22;45572;48.804;8.330;2022-12-20T16:48:12;6.60;96.80
3550;DHT22;45572;48.804;8.330;2022-12-20T16:50:40;6.50;96.80
3550;DHT22;45572;48.804;8.330;2022-12-20T16:53:12;6.50;96.80